createdAt,value
2017-10-09T00:00:04.020Z,0
2017-10-09T00:01:03.990Z,0
2017-10-09T00:02:03.972Z,0
2017-10-09T00:03:03.951Z,0
2017-10-09T00:04:03.925Z,0
2017-10-09T00:05:03.902Z,0
2017-10-09T00:06:03.872Z,0
2017-10-09T00:07:08.884Z,0
2017-10-09T00:08:03.516Z,0
2017-10-09T00:09:03.797Z,0
2017-10-09T00:10:03.464Z,0
2017-10-09T00:11:03.744Z,0
2017-10-09T00:12:03.719Z,0
2017-10-09T00:13:03.694Z,0
2017-10-09T00:14:03.366Z,0
2017-10-09T00:15:03.649Z,0
2017-10-09T00:16:03.626Z,0
2017-10-09T00:17:03.603Z,0
2017-10-09T00:18:03.586Z,0
2017-10-09T00:19:03.551Z,0
2017-10-09T00:20:03.529Z,0
2017-10-09T00:21:03.522Z,0
2017-10-09T00:22:03.476Z,0
2017-10-09T00:23:03.451Z,0
2017-10-09T00:24:03.437Z,0
2017-10-09T00:25:03.407Z,0
2017-10-09T00:26:03.078Z,0
2017-10-09T00:27:03.358Z,0
2017-10-09T00:28:03.346Z,0
2017-10-09T00:29:02.995Z,0
2017-10-09T00:30:03.281Z,0
2017-10-09T00:31:03.251Z,0
2017-10-09T00:32:03.232Z,0
2017-10-09T00:33:03.212Z,0
2017-10-09T00:34:02.880Z,0
2017-10-09T00:35:02.854Z,0
2017-10-09T00:36:03.140Z,0
2017-10-09T00:37:03.109Z,0
2017-10-09T00:38:03.089Z,0
2017-10-09T00:39:03.056Z,0
2017-10-09T00:40:03.042Z,0
2017-10-09T00:41:03.015Z,0
2017-10-09T00:42:02.986Z,0
2017-10-09T00:43:02.959Z,0
2017-10-09T00:44:02.932Z,0
2017-10-09T00:45:02.905Z,0
2017-10-09T00:46:02.898Z,0
2017-10-09T00:47:02.562Z,0
2017-10-09T00:48:02.845Z,0
2017-10-09T00:49:02.810Z,0
2017-10-09T00:50:02.800Z,0
2017-10-09T00:51:02.762Z,0
2017-10-09T00:52:02.744Z,0
2017-10-09T00:53:02.720Z,0
2017-10-09T00:54:02.068Z,0
2017-10-09T00:55:02.668Z,0
2017-10-09T00:56:02.647Z,0
2017-10-09T00:57:02.624Z,0
2017-10-09T00:58:02.281Z,0
2017-10-09T00:59:02.572Z,0
2017-10-09T01:00:02.238Z,0
2017-10-09T01:01:02.210Z,0
2017-10-09T01:02:02.502Z,0
2017-10-09T01:03:02.479Z,0
2017-10-09T01:04:02.142Z,0
2017-10-09T01:05:02.439Z,0
2017-10-09T01:06:02.391Z,0
2017-10-09T01:07:02.378Z,0
2017-10-09T01:08:02.350Z,0
2017-10-09T01:09:02.334Z,0
2017-10-09T01:10:02.307Z,0
2017-10-09T01:11:02.278Z,0
2017-10-09T01:12:02.260Z,0
2017-10-09T01:13:02.231Z,0
2017-10-09T01:14:02.203Z,0
2017-10-09T01:15:01.869Z,0
2017-10-09T01:16:02.149Z,0
2017-10-09T01:17:02.126Z,0
2017-10-09T01:18:02.109Z,0
2017-10-09T01:19:02.073Z,0
2017-10-09T01:20:02.058Z,0
2017-10-09T01:21:02.032Z,0
2017-10-09T01:22:02.005Z,0
2017-10-09T01:23:01.980Z,0
2017-10-09T01:24:01.954Z,0
2017-10-09T01:25:01.940Z,0
2017-10-09T01:26:01.905Z,0
2017-10-09T01:27:01.275Z,0
2017-10-09T01:28:01.862Z,0
2017-10-09T01:29:01.835Z,0
2017-10-09T01:30:01.820Z,0
2017-10-09T01:31:01.781Z,0
2017-10-09T01:32:01.764Z,0
2017-10-09T01:33:01.739Z,0
2017-10-09T01:34:01.717Z,0
2017-10-09T01:35:01.682Z,0
2017-10-09T01:36:01.675Z,0
2017-10-09T01:37:01.636Z,0
2017-10-09T01:38:01.615Z,0
2017-10-09T01:39:01.592Z,0
2017-10-09T01:40:01.572Z,0
2017-10-09T01:41:01.542Z,0
2017-10-09T01:42:01.520Z,0
2017-10-09T01:43:01.493Z,0
2017-10-09T01:44:01.470Z,0
2017-10-09T01:45:01.438Z,0
2017-10-09T01:46:01.418Z,0
2017-10-09T01:47:01.395Z,0
2017-10-09T01:48:01.370Z,0
2017-10-09T01:49:01.341Z,0
2017-10-09T01:50:01.017Z,0
2017-10-09T01:51:01.295Z,0
2017-10-09T01:52:01.275Z,0
2017-10-09T01:53:01.254Z,0
2017-10-09T01:54:00.928Z,0
2017-10-09T01:55:00.896Z,0
2017-10-09T01:56:01.187Z,0
2017-10-09T01:57:01.150Z,0
2017-10-09T01:58:01.127Z,0
2017-10-09T01:59:00.801Z,0
2017-10-09T02:00:01.092Z,0
2017-10-09T02:01:01.055Z,0
2017-10-09T02:02:01.031Z,0
2017-10-09T02:03:01.020Z,0
2017-10-09T02:04:00.991Z,0
2017-10-09T02:05:00.960Z,0
2017-10-09T02:06:00.938Z,0
2017-10-09T02:07:00.913Z,0
2017-10-09T02:08:00.904Z,0
2017-10-09T02:09:00.860Z,0
2017-10-09T02:10:00.534Z,0
2017-10-09T02:11:00.513Z,0
2017-10-09T02:12:00.785Z,0
2017-10-09T02:13:00.769Z,0
2017-10-09T02:14:00.752Z,0
2017-10-09T02:15:00.718Z,0
2017-10-09T02:16:00.689Z,0
2017-10-09T02:17:00.672Z,0
2017-10-09T02:18:00.650Z,0
2017-10-09T02:19:00.624Z,0
2017-10-09T02:20:00.588Z,0
2017-10-09T02:21:00.577Z,0
2017-10-09T02:22:00.554Z,0
2017-10-09T02:23:00.526Z,0
2017-10-09T02:24:00.502Z,0
2017-10-09T02:25:00.474Z,0
2017-10-09T02:26:00.142Z,0
2017-10-09T02:27:00.426Z,0
2017-10-09T02:28:00.103Z,0
2017-10-09T02:29:00.393Z,0
2017-10-09T02:30:00.363Z,0
2017-10-09T02:31:00.330Z,0
2017-10-09T02:32:00.300Z,0
2017-10-09T02:33:00.293Z,0
2017-10-09T02:34:00.269Z,0
2017-10-09T02:35:00.242Z,0
2017-10-09T02:36:00.211Z,0
2017-10-09T02:37:00.192Z,0
2017-10-09T02:38:00.161Z,0
2017-10-09T02:39:00.144Z,0
2017-10-09T02:40:00.106Z,0
2017-10-09T02:41:00.087Z,0
2017-10-09T02:42:00.065Z,0
2017-10-09T02:43:00.041Z,0
2017-10-09T02:44:00.021Z,0
2017-10-09T02:44:59.987Z,0
2017-10-09T02:45:59.654Z,0
2017-10-09T02:46:59.945Z,0
2017-10-09T02:47:59.921Z,0
2017-10-09T02:48:59.908Z,0
2017-10-09T02:49:59.866Z,0
2017-10-09T02:50:59.840Z,0
2017-10-09T02:51:59.825Z,0
2017-10-09T02:52:59.488Z,0
2017-10-09T02:53:59.773Z,0
2017-10-09T02:54:59.752Z,0
2017-10-09T02:55:59.724Z,0
2017-10-09T02:56:59.705Z,0
2017-10-09T02:57:59.673Z,0
2017-10-09T02:58:59.655Z,0
2017-10-09T02:59:59.626Z,0
2017-10-09T03:00:59.608Z,0
2017-10-09T03:01:59.578Z,0
2017-10-09T03:02:59.247Z,0
2017-10-09T03:03:59.530Z,0
2017-10-09T03:04:59.510Z,0
2017-10-09T03:05:59.487Z,0
2017-10-09T03:06:59.456Z,0
2017-10-09T03:07:59.428Z,0
2017-10-09T03:08:59.407Z,0
2017-10-09T03:09:59.381Z,0
2017-10-09T03:10:59.359Z,0
2017-10-09T03:11:59.327Z,0
2017-10-09T03:12:59.316Z,0
2017-10-09T03:13:59.283Z,0
2017-10-09T03:14:59.256Z,0
2017-10-09T03:15:59.236Z,0
2017-10-09T03:16:59.209Z,0
2017-10-09T03:17:59.191Z,0
2017-10-09T03:18:59.162Z,0
2017-10-09T03:19:59.142Z,0
2017-10-09T03:20:59.115Z,0
2017-10-09T03:21:59.091Z,0
2017-10-09T03:22:59.066Z,0
2017-10-09T03:23:59.042Z,0
2017-10-09T03:24:59.016Z,0
2017-10-09T03:25:58.992Z,0
2017-10-09T03:26:58.965Z,0
2017-10-09T03:27:58.641Z,0
2017-10-09T03:28:58.616Z,0
2017-10-09T03:29:58.894Z,0
2017-10-09T03:30:58.871Z,0
2017-10-09T03:31:58.849Z,0
2017-10-09T03:32:58.824Z,0
2017-10-09T03:33:58.803Z,0
2017-10-09T03:34:58.768Z,0
2017-10-09T03:35:58.747Z,0
2017-10-09T03:36:58.722Z,0
2017-10-09T03:37:58.698Z,0
2017-10-09T03:38:58.674Z,0
2017-10-09T03:39:58.652Z,0
2017-10-09T03:40:58.627Z,0
2017-10-09T03:41:58.596Z,0
2017-10-09T03:42:58.577Z,0
2017-10-09T03:43:58.557Z,0
2017-10-09T03:44:58.536Z,0
2017-10-09T03:45:58.496Z,0
2017-10-09T03:46:58.477Z,0
2017-10-09T03:47:58.452Z,0
2017-10-09T03:48:58.431Z,0
2017-10-09T03:49:58.407Z,0
2017-10-09T03:50:58.386Z,0
2017-10-09T03:51:58.356Z,0
2017-10-09T03:52:58.327Z,0
2017-10-09T03:53:58.301Z,0
2017-10-09T03:54:58.267Z,0
2017-10-09T03:55:58.254Z,0
2017-10-09T03:56:58.225Z,0
2017-10-09T03:57:58.203Z,0
2017-10-09T03:58:58.177Z,0
2017-10-09T03:59:58.159Z,0
2017-10-09T04:00:58.125Z,0
2017-10-09T04:01:58.116Z,0
2017-10-09T04:02:58.082Z,0
2017-10-09T04:03:58.070Z,0
2017-10-09T04:04:57.731Z,0
2017-10-09T04:05:58.012Z,0
2017-10-09T04:06:57.981Z,0
2017-10-09T04:07:57.649Z,0
2017-10-09T04:08:57.932Z,0
2017-10-09T04:09:57.936Z,0
2017-10-09T04:10:57.880Z,0
2017-10-09T04:11:57.866Z,0
2017-10-09T04:12:57.834Z,0
2017-10-09T04:13:57.810Z,0
2017-10-09T04:14:57.783Z,0
2017-10-09T04:15:57.764Z,0
2017-10-09T04:16:57.738Z,0
2017-10-09T04:17:57.717Z,0
2017-10-09T04:18:57.682Z,0
2017-10-09T04:19:57.665Z,0
2017-10-09T04:20:57.633Z,0
2017-10-09T04:21:57.620Z,0
2017-10-09T04:22:57.583Z,0
2017-10-09T04:23:57.564Z,0
2017-10-09T04:24:57.533Z,0
2017-10-09T04:25:57.511Z,0
2017-10-09T04:26:57.485Z,0
2017-10-09T04:27:57.458Z,0
2017-10-09T04:28:57.446Z,0
2017-10-09T04:29:57.105Z,0
2017-10-09T04:30:57.386Z,0
2017-10-09T04:31:57.360Z,0
2017-10-09T04:32:57.343Z,0
2017-10-09T04:33:57.306Z,0
2017-10-09T04:34:57.289Z,0
2017-10-09T04:35:56.962Z,0
2017-10-09T04:36:57.242Z,0
2017-10-09T04:37:57.216Z,0
2017-10-09T04:38:57.187Z,0
2017-10-09T04:39:57.161Z,0
2017-10-09T04:40:57.143Z,0
2017-10-09T04:41:57.110Z,0
2017-10-09T04:42:57.099Z,0
2017-10-09T04:43:57.275Z,0
2017-10-09T04:44:57.042Z,0
2017-10-09T04:45:57.030Z,0
2017-10-09T04:46:56.992Z,0
2017-10-09T04:47:56.970Z,0
2017-10-09T04:48:56.939Z,0
2017-10-09T04:49:56.620Z,0
2017-10-09T04:50:56.893Z,0
2017-10-09T04:51:56.882Z,0
2017-10-09T04:52:56.852Z,0
2017-10-09T04:53:56.820Z,0
2017-10-09T04:54:56.800Z,0
2017-10-09T04:55:56.467Z,0
2017-10-09T04:56:56.748Z,0
2017-10-09T04:57:56.718Z,0
2017-10-09T04:58:56.392Z,0
2017-10-09T04:59:56.667Z,0
2017-10-09T05:00:56.648Z,0
2017-10-09T05:01:56.624Z,0
2017-10-09T05:02:56.600Z,0
2017-10-09T05:03:56.571Z,0
2017-10-09T05:04:56.551Z,0
2017-10-09T05:05:56.529Z,0
2017-10-09T05:06:56.508Z,0
2017-10-09T05:07:56.472Z,4
2017-10-09T05:08:56.461Z,4
2017-10-09T05:09:56.440Z,0
2017-10-09T05:10:56.407Z,0
2017-10-09T05:11:56.379Z,4
2017-10-09T05:12:56.351Z,0
2017-10-09T05:13:56.333Z,4
2017-10-09T05:14:56.298Z,0
2017-10-09T05:15:56.278Z,4
2017-10-09T05:16:56.274Z,4
2017-10-09T05:17:56.232Z,4
2017-10-09T05:18:56.207Z,8
2017-10-09T05:19:56.175Z,8
2017-10-09T05:20:56.162Z,12
2017-10-09T05:21:56.141Z,12
2017-10-09T05:22:55.800Z,12
2017-10-09T05:23:55.779Z,16
2017-10-09T05:24:56.058Z,20
2017-10-09T05:25:56.035Z,24
2017-10-09T05:26:56.004Z,28
2017-10-09T05:27:55.985Z,32
2017-10-09T05:28:55.961Z,36
2017-10-09T05:29:55.930Z,44
2017-10-09T05:30:55.914Z,48
2017-10-09T05:31:55.573Z,56
2017-10-09T05:32:55.863Z,68
2017-10-09T05:33:55.843Z,76
2017-10-09T05:34:55.812Z,88
2017-10-09T05:35:55.794Z,96
2017-10-09T05:36:55.769Z,112
2017-10-09T05:37:55.738Z,128
2017-10-09T05:38:55.715Z,144
2017-10-09T05:39:55.696Z,168
2017-10-09T05:40:55.662Z,188
2017-10-09T05:41:55.640Z,208
2017-10-09T05:42:55.618Z,236
2017-10-09T05:43:55.598Z,260
2017-10-09T05:44:55.561Z,288
2017-10-09T05:45:55.554Z,324
2017-10-09T05:46:55.525Z,356
2017-10-09T05:47:55.492Z,392
2017-10-09T05:48:55.161Z,436
2017-10-09T05:49:55.444Z,480
2017-10-09T05:50:55.424Z,528
2017-10-09T05:51:55.398Z,576
2017-10-09T05:52:55.066Z,624
2017-10-09T05:53:55.344Z,684
2017-10-09T05:54:55.324Z,740
2017-10-09T05:55:55.298Z,792
2017-10-09T05:56:55.273Z,844
2017-10-09T05:57:55.250Z,900
2017-10-09T05:58:55.220Z,968
2017-10-09T05:59:55.203Z,1020
2017-10-09T06:00:55.184Z,1072
2017-10-09T06:01:55.154Z,1120
2017-10-09T06:02:55.126Z,1172
2017-10-09T06:03:55.104Z,1220
2017-10-09T06:04:55.075Z,1272
2017-10-09T06:05:55.050Z,1336
2017-10-09T06:06:55.029Z,1404
2017-10-09T06:07:55.009Z,1484
2017-10-09T06:08:54.974Z,1560
2017-10-09T06:09:54.957Z,1636
2017-10-09T06:10:54.927Z,1700
2017-10-09T06:11:54.606Z,1760
2017-10-09T06:12:54.880Z,1816
2017-10-09T06:13:54.858Z,1856
2017-10-09T06:14:54.835Z,1876
2017-10-09T06:15:54.809Z,1896
2017-10-09T06:16:54.791Z,1932
2017-10-09T06:17:54.765Z,1972
2017-10-09T06:18:54.439Z,2052
2017-10-09T06:19:54.935Z,2184
2017-10-09T06:20:54.690Z,2392
2017-10-09T06:21:54.678Z,2728
2017-10-09T06:22:54.637Z,3232
2017-10-09T06:23:54.310Z,3968
2017-10-09T06:24:54.601Z,3780
2017-10-09T06:25:54.573Z,3808
2017-10-09T06:26:54.542Z,4092
2017-10-09T06:27:54.515Z,3836
2017-10-09T06:28:54.495Z,3684
2017-10-09T06:29:54.467Z,3692
2017-10-09T06:30:54.452Z,3440
2017-10-09T06:31:54.429Z,3564
2017-10-09T06:32:54.407Z,3356
2017-10-09T06:33:54.384Z,3056
2017-10-09T06:34:54.368Z,2856
2017-10-09T06:35:54.337Z,2800
2017-10-09T06:36:54.312Z,2660
2017-10-09T06:37:53.985Z,2532
2017-10-09T06:38:54.258Z,2508
2017-10-09T06:39:54.241Z,2536
2017-10-09T06:40:54.253Z,2596
2017-10-09T06:41:54.197Z,2684
2017-10-09T06:42:54.177Z,2804
2017-10-09T06:43:53.828Z,2940
2017-10-09T06:44:54.117Z,3108
2017-10-09T06:45:54.101Z,3284
2017-10-09T06:46:54.093Z,3456
2017-10-09T06:47:53.747Z,3588
2017-10-09T06:48:54.020Z,3640
2017-10-09T06:49:54.006Z,3620
2017-10-09T06:50:53.977Z,3556
2017-10-09T06:51:53.959Z,3500
2017-10-09T06:52:53.932Z,3476
2017-10-09T06:53:53.908Z,3484
2017-10-09T06:54:53.880Z,3512
2017-10-09T06:55:53.860Z,3560
2017-10-09T06:56:53.531Z,3612
2017-10-09T06:57:53.498Z,3680
2017-10-09T06:58:53.793Z,3764
2017-10-09T06:59:53.457Z,3872
2017-10-09T07:00:53.751Z,4016
2017-10-09T07:01:53.418Z,4168
2017-10-09T07:02:53.695Z,4336
2017-10-09T07:03:53.685Z,4476
2017-10-09T07:04:53.645Z,4560
2017-10-09T07:05:53.328Z,4648
2017-10-09T07:06:53.296Z,4732
2017-10-09T07:07:52.974Z,4812
2017-10-09T07:08:53.551Z,4912
2017-10-09T07:09:53.527Z,5000
2017-10-09T07:10:53.502Z,5116
2017-10-09T07:11:53.174Z,5132
2017-10-09T07:12:53.459Z,5132
2017-10-09T07:13:53.435Z,5100
2017-10-09T07:14:53.436Z,5068
2017-10-09T07:15:53.404Z,5024
2017-10-09T07:16:53.366Z,4960
2017-10-09T07:17:53.343Z,4932
2017-10-09T07:18:53.320Z,5056
2017-10-09T07:19:52.988Z,5356
2017-10-09T07:20:52.967Z,5164
2017-10-09T07:21:53.253Z,4932
2017-10-09T07:22:53.232Z,4836
2017-10-09T07:23:53.202Z,4836
2017-10-09T07:24:52.865Z,4996
2017-10-09T07:25:53.155Z,5184
2017-10-09T07:26:53.130Z,5348
2017-10-09T07:27:53.114Z,5596
2017-10-09T07:28:53.083Z,5988
2017-10-09T07:29:53.060Z,6560
2017-10-09T07:30:53.037Z,7268
2017-10-09T07:31:53.014Z,7316
2017-10-09T07:32:52.992Z,7928
2017-10-09T07:33:52.974Z,10480
2017-10-09T07:34:52.961Z,9516
2017-10-09T07:35:52.930Z,8588
2017-10-09T07:36:52.902Z,8444
2017-10-09T07:37:52.874Z,8408
2017-10-09T07:38:52.858Z,8236
2017-10-09T07:39:52.528Z,7608
2017-10-09T07:40:52.811Z,7152
2017-10-09T07:41:52.791Z,7376
2017-10-09T07:42:52.765Z,7712
2017-10-09T07:43:52.751Z,8572
2017-10-09T07:44:52.720Z,9396
2017-10-09T07:45:52.699Z,12524
2017-10-09T07:46:52.677Z,12592
2017-10-09T07:47:52.656Z,9728
2017-10-09T07:48:52.341Z,7880
2017-10-09T07:49:52.304Z,7928
2017-10-09T07:50:52.282Z,8436
2017-10-09T07:51:52.563Z,9260
2017-10-09T07:52:52.544Z,9400
2017-10-09T07:53:52.523Z,9056
2017-10-09T07:54:52.494Z,8812
2017-10-09T07:55:52.166Z,8816
2017-10-09T07:56:52.455Z,8936
2017-10-09T07:57:52.135Z,8920
2017-10-09T07:58:52.403Z,9048
2017-10-09T07:59:52.077Z,9192
2017-10-09T08:00:52.056Z,9036
2017-10-09T08:01:52.340Z,9216
2017-10-09T08:02:52.330Z,9632
2017-10-09T08:03:52.293Z,9788
2017-10-09T08:04:52.278Z,9992
2017-10-09T08:05:52.260Z,10500
2017-10-09T08:06:52.238Z,10868
2017-10-09T08:07:52.208Z,10988
2017-10-09T08:08:52.187Z,10724
2017-10-09T08:09:52.165Z,10028
2017-10-09T08:10:52.140Z,9912
2017-10-09T08:11:52.117Z,9764
2017-10-09T08:12:52.094Z,10064
2017-10-09T08:13:52.089Z,10688
2017-10-09T08:14:51.749Z,11212
2017-10-09T08:15:52.028Z,11092
2017-10-09T08:16:52.013Z,9940
2017-10-09T08:17:51.984Z,8320
2017-10-09T08:18:51.967Z,7440
2017-10-09T08:19:51.943Z,7416
2017-10-09T08:20:51.956Z,8144
2017-10-09T08:21:51.907Z,8988
2017-10-09T08:22:51.881Z,9760
2017-10-09T08:23:51.858Z,10304
2017-10-09T08:24:51.837Z,11016
2017-10-09T08:25:51.812Z,11372
2017-10-09T08:26:51.793Z,11076
2017-10-09T08:27:51.763Z,10996
2017-10-09T08:28:51.740Z,11412
2017-10-09T08:29:51.726Z,11700
2017-10-09T08:30:51.705Z,10976
2017-10-09T08:31:51.676Z,10320
2017-10-09T08:32:51.660Z,9832
2017-10-09T08:33:51.632Z,9292
2017-10-09T08:34:51.623Z,8696
2017-10-09T08:35:51.586Z,8632
2017-10-09T08:36:51.581Z,8872
2017-10-09T08:37:51.244Z,9088
2017-10-09T08:38:51.541Z,9336
2017-10-09T08:39:51.507Z,9368
2017-10-09T08:40:51.178Z,9516
2017-10-09T08:41:51.469Z,9900
2017-10-09T08:42:51.434Z,10300
2017-10-09T08:43:51.126Z,10784
2017-10-09T08:44:51.395Z,11200
2017-10-09T08:45:51.367Z,11952
2017-10-09T08:46:50.731Z,12060
2017-10-09T08:47:51.325Z,11672
2017-10-09T08:48:51.307Z,11620
2017-10-09T08:49:51.285Z,11708
2017-10-09T08:50:51.266Z,11884
2017-10-09T08:51:51.246Z,12168
2017-10-09T08:52:51.230Z,12420
2017-10-09T08:53:51.200Z,12268
2017-10-09T08:54:50.876Z,11940
2017-10-09T08:55:51.154Z,11556
2017-10-09T08:56:51.130Z,10912
2017-10-09T08:57:51.119Z,9808
2017-10-09T08:58:51.087Z,8852
2017-10-09T08:59:51.075Z,8996
2017-10-09T09:00:51.040Z,9372
2017-10-09T09:01:51.051Z,9548
2017-10-09T09:02:50.997Z,9984
2017-10-09T09:03:50.982Z,10584
2017-10-09T09:04:50.960Z,10524
2017-10-09T09:05:50.935Z,10328
2017-10-09T09:06:50.600Z,10480
2017-10-09T09:07:50.890Z,10788
2017-10-09T09:08:50.559Z,10884
2017-10-09T09:09:50.844Z,10648
2017-10-09T09:10:50.819Z,10348
2017-10-09T09:11:50.804Z,10212
2017-10-09T09:12:50.792Z,10172
2017-10-09T09:13:50.768Z,10292
2017-10-09T09:14:50.432Z,10272
2017-10-09T09:15:50.727Z,10196
2017-10-09T09:16:50.691Z,10368
2017-10-09T09:17:50.685Z,10676
2017-10-09T09:18:50.647Z,10628
2017-10-09T09:19:50.642Z,10236
2017-10-09T09:20:50.297Z,9888
2017-10-09T09:21:50.583Z,10012
2017-10-09T09:22:50.556Z,10644
2017-10-09T09:23:50.540Z,11032
2017-10-09T09:24:50.516Z,10900
2017-10-09T09:25:50.506Z,10600
2017-10-09T09:26:50.472Z,10048
2017-10-09T09:27:50.451Z,10064
2017-10-09T09:28:50.435Z,10248
2017-10-09T09:29:50.400Z,10276
2017-10-09T09:30:50.432Z,10296
2017-10-09T09:31:50.384Z,10216
2017-10-09T09:32:50.340Z,10164
2017-10-09T09:33:50.329Z,10488
2017-10-09T09:34:50.306Z,10580
2017-10-09T09:35:49.965Z,10700
2017-10-09T09:36:49.941Z,10896
2017-10-09T09:37:49.924Z,10892
2017-10-09T09:38:50.209Z,10624
2017-10-09T09:39:50.188Z,10176
2017-10-09T09:40:50.167Z,9588
2017-10-09T09:41:50.150Z,9160
2017-10-09T09:42:50.128Z,8968
2017-10-09T09:43:50.117Z,9048
2017-10-09T09:44:50.084Z,9860
2017-10-09T09:45:50.058Z,10660
2017-10-09T09:46:50.036Z,11320
2017-10-09T09:47:50.018Z,12736
2017-10-09T09:48:50.004Z,14260
2017-10-09T09:49:50.018Z,15860
2017-10-09T09:50:49.949Z,17888
2017-10-09T09:51:49.937Z,19872
2017-10-09T09:52:49.913Z,19936
2017-10-09T09:53:49.591Z,18304
2017-10-09T09:54:49.869Z,17856
2017-10-09T09:55:49.536Z,16960
2017-10-09T09:56:49.515Z,15692
2017-10-09T09:57:49.501Z,17120
2017-10-09T09:58:49.795Z,18048
2017-10-09T09:59:49.766Z,18336
2017-10-09T10:00:49.733Z,18528
2017-10-09T10:01:49.731Z,18144
2017-10-09T10:02:49.700Z,16232
2017-10-09T10:03:49.672Z,15324
2017-10-09T10:04:49.646Z,14784
2017-10-09T10:05:49.631Z,13724
2017-10-09T10:06:49.308Z,12540
2017-10-09T10:07:49.606Z,11396
2017-10-09T10:08:49.574Z,10816
2017-10-09T10:09:49.244Z,10644
2017-10-09T10:10:49.540Z,11224
2017-10-09T10:11:49.511Z,11084
2017-10-09T10:12:49.485Z,12316
2017-10-09T10:13:49.468Z,12032
2017-10-09T10:14:49.440Z,11576
2017-10-09T10:15:49.432Z,13800
2017-10-09T10:16:49.403Z,13784
2017-10-09T10:17:49.374Z,13304
2017-10-09T10:18:49.352Z,12568
2017-10-09T10:19:49.345Z,11168
2017-10-09T10:20:49.322Z,11116
2017-10-09T10:21:49.298Z,11308
2017-10-09T10:22:48.966Z,11956
2017-10-09T10:23:49.255Z,12296
2017-10-09T10:24:49.237Z,12380
2017-10-09T10:25:49.218Z,12944
2017-10-09T10:26:49.193Z,13268
2017-10-09T10:27:49.182Z,13428
2017-10-09T10:28:49.139Z,13040
2017-10-09T10:29:49.129Z,12880
2017-10-09T10:30:48.804Z,12540
2017-10-09T10:31:49.112Z,12428
2017-10-09T10:32:49.071Z,12748
2017-10-09T10:33:49.056Z,13036
2017-10-09T10:34:49.023Z,13224
2017-10-09T10:35:49.000Z,13516
2017-10-09T10:36:48.683Z,13524
2017-10-09T10:37:48.955Z,13596
2017-10-09T10:38:48.944Z,13496
2017-10-09T10:39:48.930Z,13396
2017-10-09T10:40:48.891Z,13364
2017-10-09T10:41:48.570Z,13524
2017-10-09T10:42:48.859Z,13696
2017-10-09T10:43:48.835Z,13508
2017-10-09T10:44:48.817Z,13160
2017-10-09T10:45:48.786Z,13044
2017-10-09T10:46:48.472Z,13324
2017-10-09T10:47:48.751Z,13184
2017-10-09T10:48:48.732Z,13100
2017-10-09T10:49:48.707Z,12664
2017-10-09T10:50:48.680Z,12068
2017-10-09T10:51:48.654Z,12356
2017-10-09T10:52:48.653Z,12236
2017-10-09T10:53:48.623Z,12060
2017-10-09T10:54:48.605Z,12804
2017-10-09T10:55:48.597Z,13164
2017-10-09T10:56:48.562Z,13168
2017-10-09T10:57:48.537Z,13912
2017-10-09T10:58:48.514Z,13844
2017-10-09T10:59:48.189Z,14280
2017-10-09T11:00:48.469Z,14680
2017-10-09T11:01:48.159Z,15236
2017-10-09T11:02:48.431Z,15740
2017-10-09T11:03:48.103Z,16020
2017-10-09T11:04:48.077Z,16428
2017-10-09T11:05:48.065Z,16496
2017-10-09T11:06:48.361Z,16768
2017-10-09T11:07:48.331Z,16492
2017-10-09T11:08:48.303Z,16460
2017-10-09T11:09:48.308Z,16736
2017-10-09T11:10:48.260Z,16832
2017-10-09T11:11:48.243Z,16832
2017-10-09T11:12:48.229Z,16768
2017-10-09T11:13:47.895Z,16376
2017-10-09T11:14:48.182Z,16280
2017-10-09T11:15:48.177Z,16220
2017-10-09T11:16:48.172Z,16284
2017-10-09T11:17:48.113Z,16352
2017-10-09T11:18:48.118Z,16080
2017-10-09T11:19:48.077Z,15644
2017-10-09T11:20:48.058Z,14776
2017-10-09T11:21:48.035Z,14480
2017-10-09T11:22:48.031Z,13472
2017-10-09T11:23:47.997Z,13608
2017-10-09T11:24:47.671Z,13264
2017-10-09T11:25:47.648Z,13492
2017-10-09T11:26:47.629Z,13304
2017-10-09T11:27:47.624Z,13436
2017-10-09T11:28:47.901Z,13416
2017-10-09T11:29:47.873Z,13576
2017-10-09T11:30:47.537Z,13708
2017-10-09T11:31:47.831Z,13864
2017-10-09T11:32:47.815Z,14016
2017-10-09T11:33:47.183Z,13624
2017-10-09T11:34:47.773Z,13632
2017-10-09T11:35:47.756Z,13536
2017-10-09T11:36:47.723Z,13416
2017-10-09T11:37:47.710Z,12640
2017-10-09T11:38:47.691Z,13236
2017-10-09T11:39:47.364Z,11900
2017-10-09T11:40:47.342Z,11548
2017-10-09T11:41:47.624Z,11472
2017-10-09T11:42:47.616Z,11296
2017-10-09T11:43:47.279Z,11240
2017-10-09T11:44:47.564Z,12040
2017-10-09T11:45:47.560Z,13048
2017-10-09T11:46:47.537Z,13584
2017-10-09T11:47:47.506Z,13544
2017-10-09T11:48:47.180Z,13480
2017-10-09T11:49:47.458Z,13568
2017-10-09T11:50:47.440Z,13748
2017-10-09T11:51:47.113Z,14024
2017-10-09T11:52:47.096Z,14080
2017-10-09T11:53:47.376Z,14048
2017-10-09T11:54:47.358Z,13916
2017-10-09T11:55:47.335Z,13664
2017-10-09T11:56:47.317Z,13520
2017-10-09T11:57:47.299Z,12920
2017-10-09T11:58:47.277Z,11528
2017-10-09T11:59:47.255Z,12516
2017-10-09T12:00:46.924Z,12668
2017-10-09T12:01:46.911Z,12660
2017-10-09T12:02:47.190Z,13188
2017-10-09T12:03:46.865Z,13436
2017-10-09T12:04:47.155Z,13228
2017-10-09T12:05:47.139Z,13204
2017-10-09T12:06:46.502Z,13116
2017-10-09T12:07:47.087Z,13788
2017-10-09T12:08:47.069Z,13964
2017-10-09T12:09:47.045Z,13412
2017-10-09T12:10:47.026Z,13820
2017-10-09T12:11:47.007Z,13696
2017-10-09T12:12:46.983Z,13792
2017-10-09T12:13:46.960Z,13664
2017-10-09T12:14:46.960Z,13112
2017-10-09T12:15:46.921Z,12796
2017-10-09T12:16:46.897Z,12664
2017-10-09T12:17:46.584Z,12252
2017-10-09T12:18:46.864Z,11960
2017-10-09T12:19:46.841Z,11180
2017-10-09T12:20:46.822Z,10472
2017-10-09T12:21:46.831Z,10984
2017-10-09T12:22:46.775Z,11080
2017-10-09T12:23:46.756Z,11576
2017-10-09T12:24:46.740Z,11672
2017-10-09T12:25:46.725Z,11536
2017-10-09T12:26:46.697Z,10892
2017-10-09T12:27:46.379Z,11040
2017-10-09T12:28:46.676Z,10828
2017-10-09T12:29:46.630Z,10808
2017-10-09T12:30:46.628Z,10200
2017-10-09T12:31:46.599Z,10324
2017-10-09T12:32:46.571Z,10364
2017-10-09T12:33:46.549Z,10228
2017-10-09T12:34:46.227Z,10204
2017-10-09T12:35:46.512Z,10356
2017-10-09T12:36:46.494Z,10416
2017-10-09T12:37:46.153Z,10428
2017-10-09T12:38:46.444Z,10488
2017-10-09T12:39:46.437Z,10568
2017-10-09T12:40:46.398Z,10568
2017-10-09T12:41:46.082Z,10412
2017-10-09T12:42:46.365Z,10276
2017-10-09T12:43:46.349Z,10444
2017-10-09T12:44:46.325Z,10572
2017-10-09T12:45:46.304Z,10576
2017-10-09T12:46:46.276Z,10468
2017-10-09T12:47:46.293Z,10400
2017-10-09T12:48:46.234Z,10168
2017-10-09T12:49:46.217Z,9760
2017-10-09T12:50:46.199Z,9496
2017-10-09T12:51:46.176Z,9432
2017-10-09T12:52:46.151Z,9976
2017-10-09T12:53:45.260Z,10412
2017-10-09T12:54:45.799Z,10284
2017-10-09T12:55:46.093Z,11036
2017-10-09T12:56:46.076Z,10768
2017-10-09T12:57:46.044Z,10864
2017-10-09T12:58:46.022Z,11148
2017-10-09T12:59:45.702Z,11540
2017-10-09T13:00:45.678Z,12292
2017-10-09T13:01:45.962Z,13480
2017-10-09T13:02:45.960Z,12264
2017-10-09T13:03:45.928Z,12756
2017-10-09T13:04:45.909Z,12764
2017-10-09T13:05:45.576Z,11476
2017-10-09T13:06:45.860Z,12396
2017-10-09T13:07:45.852Z,12360
2017-10-09T13:08:45.816Z,13416
2017-10-09T13:09:45.183Z,12840
2017-10-09T13:10:45.785Z,11960
2017-10-09T13:11:45.765Z,11852
2017-10-09T13:12:45.740Z,12564
2017-10-09T13:13:45.716Z,13212
2017-10-09T13:14:45.704Z,12536
2017-10-09T13:15:45.667Z,12732
2017-10-09T13:16:45.667Z,13716
2017-10-09T13:17:45.639Z,14216
2017-10-09T13:18:45.609Z,14080
2017-10-09T13:19:45.291Z,13984
2017-10-09T13:20:45.571Z,12468
2017-10-09T13:21:45.552Z,12068
2017-10-09T13:22:45.567Z,11040
2017-10-09T13:23:45.507Z,11280
2017-10-09T13:24:45.500Z,11104
2017-10-09T13:25:45.469Z,10824
2017-10-09T13:26:45.450Z,9928
2017-10-09T13:27:45.434Z,9392
2017-10-09T13:28:45.398Z,9388
2017-10-09T13:29:45.382Z,9628
2017-10-09T13:30:45.362Z,9636
2017-10-09T13:31:45.342Z,9496
2017-10-09T13:32:45.016Z,9712
2017-10-09T13:33:45.297Z,9980
2017-10-09T13:34:45.279Z,10256
2017-10-09T13:35:45.262Z,10168
2017-10-09T13:36:45.232Z,10276
2017-10-09T13:37:45.214Z,9896
2017-10-09T13:38:45.196Z,9548
2017-10-09T13:39:45.181Z,9200
2017-10-09T13:40:45.167Z,8568
2017-10-09T13:41:45.135Z,7988